Time;durP1;ratioP1;P1;durP2;ratioP2;P2;SDS_P1;SDS_P2;PMS_P1;PMS_P2;Temp;Humidity;BMP_temperature;BMP_pressure;BME280_temperature;BME280_humidity;BME280_pressure;Samples;Min_cycle;Max_cycle;Signal;HPM_P1;HPM_P2
2023/06/25 00:00:32;;;;;;;15.00;9.68;;;;;;;13.34;85.28;96547.84;2115736;28;20066;-58
2023/06/25 00:01:33;;;;;;;13.50;9.73;;;;;;;13.32;85.46;96552.34;2115295;28;20051;-58
2023/06/25 00:02:34;;;;;;;11.10;9.50;;;;;;;13.30;85.62;96547.19;2115099;28;20060;-58
2023/06/25 00:03:35;;;;;;;13.43;9.30;;;;;;;13.28;86.09;96551.63;2115724;28;20436;-57
2023/06/25 00:04:36;;;;;;;10.00;8.10;;;;;;;13.27;85.77;96549.94;2116060;28;20051;-58
2023/06/25 00:05:37;;;;;;;13.02;9.00;;;;;;;13.25;86.17;96552.56;2106557;28;20055;-58
2023/06/25 00:06:38;;;;;;;13.68;9.30;;;;;;;13.21;86.53;96545.84;2106697;28;20048;-58
2023/06/25 00:07:40;;;;;;;14.02;9.10;;;;;;;13.19;86.14;96547.66;2107263;28;20055;-58
2023/06/25 00:08:41;;;;;;;12.63;8.90;;;;;;;13.15;86.46;96540.06;2107366;28;20036;-58
2023/06/25 00:09:52;;;;;;;13.10;8.63;;;;;;;13.06;86.50;96530.94;2106274;28;20048;-58
2023/06/25 00:10:53;;;;;;;11.40;8.90;;;;;;;13.12;87.07;96541.06;2106844;28;20047;-58
2023/06/25 00:11:54;;;;;;;11.88;9.30;;;;;;;13.12;86.88;96546.28;2106912;28;20094;-58
2023/06/25 00:12:55;;;;;;;11.88;9.10;;;;;;;13.09;87.25;96543.81;2107004;28;20070;-58
2023/06/25 00:13:56;;;;;;;11.45;9.70;;;;;;;13.07;87.58;96536.97;2106976;28;20059;-58
2023/06/25 00:14:57;;;;;;;12.40;9.63;;;;;;;13.04;87.87;96537.97;2106796;28;20048;-58
2023/06/25 00:15:58;;;;;;;11.30;9.73;;;;;;;13.03;87.75;96537.13;2107233;28;20142;-58
2023/06/25 00:16:59;;;;;;;11.63;9.55;;;;;;;13.01;87.89;96536.34;2107370;28;20055;-58
2023/06/25 00:18:00;;;;;;;17.25;10.02;;;;;;;13.00;87.70;96541.66;2106919;28;20055;-58
2023/06/25 00:19:02;;;;;;;14.73;9.18;;;;;;;12.93;88.14;96530.69;2105997;28;20471;-58
2023/06/25 00:20:04;;;;;;;13.30;10.15;;;;;;;12.91;87.75;96527.31;2105959;28;20056;-58
2023/06/25 00:21:05;;;;;;;15.65;10.13;;;;;;;12.77;88.20;96504.50;2106458;28;20395;-58
2023/06/25 00:22:06;;;;;;;16.58;10.50;;;;;;;12.94;88.04;96531.53;2107291;28;20044;-58
2023/06/25 00:23:08;;;;;;;13.50;10.10;;;;;;;12.92;88.88;96530.75;2106843;28;20047;-58
2023/06/25 00:24:09;;;;;;;13.98;9.70;;;;;;;12.92;88.30;96539.44;2106566;28;20056;-58
2023/06/25 00:25:10;;;;;;;13.73;10.65;;;;;;;12.91;89.01;96531.66;2107056;28;20040;-58
2023/06/25 00:26:11;;;;;;;14.60;10.60;;;;;;;12.88;89.11;96537.88;2106804;28;20547;-58
2023/06/25 00:27:12;;;;;;;12.77;10.27;;;;;;;12.89;88.77;96538.75;2107071;28;20043;-58
2023/06/25 00:28:13;;;;;;;11.80;10.02;;;;;;;12.86;89.32;96538.88;2107055;28;20043;-58
2023/06/25 00:29:14;;;;;;;13.40;10.07;;;;;;;12.87;89.29;96537.97;2107082;28;20477;-58
2023/06/25 00:30:16;;;;;;;12.02;9.38;;;;;;;12.75;89.63;96518.50;2106798;28;20067;-58
2023/06/25 00:31:17;;;;;;;12.40;9.85;;;;;;;12.83;89.95;96534.66;2106628;28;20052;-58
2023/06/25 00:32:18;;;;;;;11.50;9.60;;;;;;;12.80;89.83;96534.78;2107219;28;20040;-58
2023/06/25 00:33:19;;;;;;;13.85;9.90;;;;;;;12.79;89.72;96541.75;2106847;28;20048;-58
2023/06/25 00:34:20;;;;;;;13.07;10.45;;;;;;;12.77;89.58;96546.19;2106618;28;20052;-58
2023/06/25 00:35:24;;;;;;;10.38;8.80;;;;;;;12.85;89.46;96540.63;2107099;28;20052;-58
2023/06/25 00:36:25;;;;;;;12.93;9.13;;;;;;;12.87;89.65;96540.56;2105759;28;20063;-58
2023/06/25 00:37:26;;;;;;;13.90;9.32;;;;;;;12.86;89.36;96542.34;2098266;28;20048;-58
2023/06/25 00:38:27;;;;;;;12.35;9.55;;;;;;;12.90;89.28;96546.47;2106641;28;20044;-58
2023/06/25 00:39:29;;;;;;;13.70;9.57;;;;;;;12.92;88.75;96538.59;2107020;28;20048;-58
2023/06/25 00:40:30;;;;;;;13.20;8.95;;;;;;;12.87;88.97;96536.19;2106733;28;20056;-58
2023/06/25 00:41:31;;;;;;;13.70;9.45;;;;;;;12.86;88.71;96534.50;2107050;28;20048;-56
2023/06/25 00:42:42;;;;;;;11.68;8.45;;;;;;;12.84;88.28;96528.53;2106314;28;20052;-58
2023/06/25 00:43:43;;;;;;;12.52;9.35;;;;;;;12.81;87.96;96541.69;2107271;28;20036;-58
2023/06/25 00:44:44;;;;;;;11.43;9.18;;;;;;;12.78;88.25;96523.63;2107258;28;20036;-58
2023/06/25 00:45:45;;;;;;;10.82;8.75;;;;;;;12.76;88.14;96534.09;2106871;28;20491;-57
2023/06/25 00:46:46;;;;;;;11.25;8.60;;;;;;;12.75;88.59;96526.34;2105470;28;20071;-58
2023/06/25 00:47:48;;;;;;;11.68;9.57;;;;;;;12.70;88.52;96531.78;2098104;28;20047;-58
2023/06/25 00:48:49;;;;;;;10.75;8.70;;;;;;;12.62;88.53;96512.22;2097387;28;20052;-58
2023/06/25 00:49:50;;;;;;;10.90;8.85;;;;;;;12.69;88.39;96526.63;2097323;28;20059;-58
2023/06/25 00:50:51;;;;;;;12.88;9.65;;;;;;;12.67;88.01;96524.13;2097363;28;20428;-58
2023/06/25 00:51:53;;;;;;;13.05;9.32;;;;;;;12.67;87.84;96521.50;2105278;28;20052;-58
2023/06/25 00:52:56;;;;;;;11.07;9.05;;;;;;;12.66;87.98;96524.19;2106637;28;20072;-58
2023/06/25 00:53:58;;;;;;;12.07;9.30;;;;;;;12.56;88.01;96516.81;2097831;28;20063;-58
2023/06/25 00:54:59;;;;;;;11.30;9.27;;;;;;;12.62;88.02;96522.66;2090191;28;20064;-58
2023/06/25 00:56:00;;;;;;;14.18;9.10;;;;;;;12.62;88.01;96518.28;2097375;28;20049;-58
2023/06/25 00:57:03;;;;;;;13.80;9.43;;;;;;;12.61;87.61;96523.53;2106308;28;20058;-58
2023/06/25 00:58:04;;;;;;;13.38;9.27;;;;;;;12.50;88.04;96504.03;2106142;28;20048;-58
2023/06/25 00:59:06;;;;;;;12.38;9.45;;;;;;;12.63;88.34;96522.56;2105284;28;20051;-58
2023/06/25 01:00:13;;;;;;;10.95;9.10;;;;;;;12.63;88.47;96522.56;2107203;28;20063;-58
2023/06/25 01:01:20;;;;;;;14.07;10.13;;;;;;;12.63;88.86;96513.91;2106971;28;20055;-58
2023/06/25 01:02:43;;;;;;;12.77;9.45;;;;;;;12.58;88.14;96512.34;2105575;28;20048;-58
2023/06/25 01:03:54;;;;;;;12.50;9.77;;;;;;;12.46;88.03;96493.88;2106549;28;20044;-58
2023/06/25 01:05:09;;;;;;;14.00;10.48;;;;;;;12.56;87.92;96514.19;2105768;28;20044;-58
2023/06/25 01:06:17;;;;;;;12.82;9.45;;;;;;;12.54;88.63;96512.59;2107251;28;20047;-58
2023/06/25 01:07:22;;;;;;;12.10;10.07;;;;;;;12.52;88.27;96510.03;2097108;28;20403;-58
2023/06/25 01:08:28;;;;;;;14.02;9.93;;;;;;;12.51;88.50;96503.16;2089637;28;20093;-58
2023/06/25 01:09:29;;;;;;;13.13;10.30;;;;;;;12.57;88.61;96513.28;2099389;28;20051;-58
2023/06/25 01:10:31;;;;;;;12.80;10.50;;;;;;;12.60;89.00;96507.06;2096981;28;20072;-58
2023/06/25 01:11:32;;;;;;;13.82;11.10;;;;;;;12.58;88.40;96512.34;2080599;28;20057;-58
2023/06/25 01:12:33;;;;;;;15.40;11.43;;;;;;;12.58;88.34;96512.34;2089697;28;20048;-58
2023/06/25 01:13:34;;;;;;;14.45;10.73;;;;;;;12.56;88.49;96514.19;2097859;28;20048;-58
2023/06/25 01:14:35;;;;;;;12.43;9.95;;;;;;;12.54;88.62;96510.81;2105503;28;20060;-58
2023/06/25 01:15:36;;;;;;;14.93;11.00;;;;;;;12.53;88.63;96516.09;2114228;28;20063;-58
2023/06/25 01:16:37;;;;;;;15.13;11.13;;;;;;;12.50;87.89;96504.03;2115192;28;20055;-58
2023/06/25 01:17:41;;;;;;;13.15;10.50;;;;;;;12.47;88.42;96503.34;2105559;28;20059;-58
2023/06/25 01:18:42;;;;;;;15.70;11.50;;;;;;;12.44;88.36;96500.91;2097495;28;20052;-58
2023/06/25 01:19:44;;;;;;;13.57;11.23;;;;;;;12.44;88.78;96503.50;2089716;28;20384;-58
2023/06/25 01:20:46;;;;;;;14.20;11.20;;;;;;;12.42;88.14;96508.75;2097306;28;20049;-58
2023/06/25 01:21:47;;;;;;;14.82;11.20;;;;;;;12.42;88.39;96503.56;2114519;28;20044;-58
2023/06/25 01:22:48;;;;;;;14.10;11.00;;;;;;;12.42;89.03;96502.72;2097915;28;20040;-58
2023/06/25 01:23:50;;;;;;;16.90;11.57;;;;;;;12.41;89.50;96501.88;2089162;28;20424;-58
2023/06/25 01:24:52;;;;;;;13.25;10.32;;;;;;;12.42;88.43;96492.31;2105735;28;20506;-58
2023/06/25 01:25:53;;;;;;;14.95;10.88;;;;;;;12.42;89.19;96502.72;2105705;28;20054;-58
2023/06/25 01:26:59;;;;;;;13.15;10.75;;;;;;;12.42;88.91;96503.56;2097628;28;20055;-58
2023/06/25 01:28:03;;;;;;;13.82;10.82;;;;;;;12.39;88.67;96495.91;2098443;28;20404;-58
2023/06/25 01:29:04;;;;;;;14.15;10.88;;;;;;;12.40;89.07;96500.16;2105441;28;20055;-57
2023/06/25 01:30:06;;;;;;;14.45;11.02;;;;;;;12.41;88.73;96503.66;2115003;28;20493;-58
2023/06/25 01:31:08;;;;;;;16.13;11.48;;;;;;;12.38;89.02;96495.97;2114637;28;20043;-58
2023/06/25 01:32:09;;;;;;;17.58;11.13;;;;;;;12.24;89.06;96478.38;2105608;28;20047;-58
2023/06/25 01:33:15;;;;;;;16.80;11.23;;;;;;;12.34;88.76;96495.25;2105679;28;20491;-58
2023/06/25 01:34:16;;;;;;;16.20;11.05;;;;;;;12.31;89.31;96498.84;2105057;28;20063;-58
2023/06/25 01:35:18;;;;;;;14.10;11.52;;;;;;;12.29;88.86;96494.63;2106010;28;20043;-58
2023/06/25 01:36:19;;;;;;;14.70;10.88;;;;;;;12.27;89.02;96497.31;2113505;28;20052;-58
2023/06/25 01:37:20;;;;;;;14.15;11.35;;;;;;;12.28;89.46;96503.38;2114536;28;20043;-58
2023/06/25 01:38:21;;;;;;;14.15;10.43;;;;;;;12.27;89.76;96492.09;2115010;28;20047;-58
2023/06/25 01:39:22;;;;;;;14.50;10.55;;;;;;;12.30;89.86;96494.56;2115207;28;20039;-58
2023/06/25 01:40:23;;;;;;;15.90;12.15;;;;;;;12.29;89.73;96497.22;2105954;28;20391;-58
2023/06/25 01:41:25;;;;;;;13.25;10.77;;;;;;;12.28;89.73;96496.38;2105257;28;20146;-58
2023/06/25 01:42:26;;;;;;;14.18;11.35;;;;;;;12.26;90.32;96487.78;2114394;28;20056;-58
2023/06/25 01:43:27;;;;;;;16.58;13.10;;;;;;;12.28;90.35;96490.34;2106171;28;20043;-58
2023/06/25 01:44:29;;;;;;;15.40;11.60;;;;;;;12.26;91.20;96489.56;2105641;28;20055;-58
2023/06/25 01:45:30;;;;;;;14.68;11.43;;;;;;;12.26;90.92;96493.00;2096434;28;20425;-58
2023/06/25 01:46:31;;;;;;;14.52;11.40;;;;;;;12.27;91.00;96489.50;2089195;28;20523;-58
2023/06/25 01:47:32;;;;;;;17.02;12.35;;;;;;;12.27;91.73;96493.84;2105743;28;20047;-57
2023/06/25 01:48:33;;;;;;;15.75;12.27;;;;;;;12.24;91.86;96489.66;2114875;28;20046;-58
2023/06/25 01:49:35;;;;;;;15.23;11.73;;;;;;;12.12;91.97;96475.41;2114888;28;20486;-58
2023/06/25 01:50:36;;;;;;;15.27;12.30;;;;;;;12.22;91.66;96488.03;2114345;28;20062;-58
2023/06/25 01:51:37;;;;;;;14.48;11.48;;;;;;;12.20;92.12;96488.09;2114102;28;20056;-58
2023/06/25 01:52:38;;;;;;;16.15;11.70;;;;;;;12.17;91.81;96487.38;2114956;28;20039;-58
2023/06/25 01:53:39;;;;;;;14.27;11.73;;;;;;;12.14;92.07;96483.16;2114013;28;20471;-58
2023/06/25 01:54:40;;;;;;;14.98;11.13;;;;;;;12.10;92.11;96482.44;2105655;28;20051;-58
2023/06/25 01:55:41;;;;;;;14.05;11.80;;;;;;;12.12;91.66;96485.81;2105111;28;20064;-58
2023/06/25 01:56:43;;;;;;;18.52;12.65;;;;;;;12.11;92.18;96485.91;2114899;28;20047;-58
2023/06/25 01:57:44;;;;;;;17.02;11.50;;;;;;;12.11;92.67;96481.56;2105201;28;20063;-58
2023/06/25 01:58:45;;;;;;;13.88;11.40;;;;;;;12.09;92.63;96475.56;2096970;28;20045;-58
2023/06/25 01:59:46;;;;;;;15.73;12.10;;;;;;;12.16;92.19;96477.88;2097502;28;20413;-58
2023/06/25 02:00:47;;;;;;;15.73;12.23;;;;;;;12.13;92.47;96482.34;2105118;28;20048;-58
2023/06/25 02:01:50;;;;;;;16.42;11.88;;;;;;;12.14;92.28;96477.97;2104877;28;20044;-58
2023/06/25 02:02:52;;;;;;;16.83;12.30;;;;;;;12.11;92.08;96478.09;2105497;28;20155;-58
2023/06/25 02:03:53;;;;;;;13.70;12.02;;;;;;;12.11;91.93;96478.94;2096735;28;20059;-58
2023/06/25 02:04:54;;;;;;;15.23;11.35;;;;;;;12.09;92.27;96472.97;2105155;28;20059;-58
2023/06/25 02:05:55;;;;;;;15.65;12.52;;;;;;;12.05;92.04;96468.78;2105923;28;20040;-58
2023/06/25 02:06:56;;;;;;;16.58;12.30;;;;;;;12.05;92.28;96467.94;2105502;28;20365;-58
2023/06/25 02:07:57;;;;;;;16.02;11.93;;;;;;;12.04;92.11;96468.88;2105952;28;20044;-58
2023/06/25 02:08:58;;;;;;;14.95;11.40;;;;;;;12.00;91.72;96470.78;2097513;28;20037;-57
2023/06/25 02:09:59;;;;;;;14.60;11.48;;;;;;;11.99;91.49;96463.88;2104894;28;20472;-58
2023/06/25 02:11:00;;;;;;;16.35;12.52;;;;;;;11.98;92.12;96467.41;2106410;28;20047;-58
2023/06/25 02:12:02;;;;;;;14.85;10.93;;;;;;;11.97;91.97;96468.28;2106080;28;20079;-58
2023/06/25 02:13:03;;;;;;;15.30;12.32;;;;;;;11.94;92.15;96465.84;2105088;28;20043;-58
2023/06/25 02:14:04;;;;;;;14.88;11.88;;;;;;;11.93;92.18;96465.91;2097505;28;20049;-57
2023/06/25 02:15:06;;;;;;;19.17;13.52;;;;;;;11.89;92.34;96460.84;2105185;28;20052;-57
2023/06/25 02:16:07;;;;;;;16.23;12.65;;;;;;;11.89;91.97;96463.47;2105423;28;20040;-58
2023/06/25 02:17:09;;;;;;;16.23;12.75;;;;;;;11.89;92.63;96463.47;2097350;28;20139;-58
2023/06/25 02:18:10;;;;;;;16.88;12.70;;;;;;;11.88;92.29;96464.34;2105127;28;20048;-58
2023/06/25 02:19:11;;;;;;;15.13;12.57;;;;;;;11.88;92.62;96459.16;2105743;28;20403;-58
2023/06/25 02:20:12;;;;;;;16.40;12.02;;;;;;;11.87;92.13;96461.84;2096996;28;20108;-58
2023/06/25 02:21:13;;;;;;;16.27;13.18;;;;;;;11.85;92.56;96459.25;2105018;28;20055;-58
2023/06/25 02:22:14;;;;;;;16.00;12.80;;;;;;;11.86;92.89;96457.53;2106127;28;20407;-58
2023/06/25 02:23:15;;;;;;;15.02;13.00;;;;;;;11.85;93.00;96461.03;2106680;28;20123;-58
2023/06/25 02:24:16;;;;;;;17.13;13.15;;;;;;;11.83;93.20;96460.25;2105525;28;20048;-58
2023/06/25 02:25:17;;;;;;;18.85;13.95;;;;;;;11.81;93.04;96449.06;2105843;28;20051;-58
2023/06/25 02:26:19;;;;;;;16.23;13.27;;;;;;;11.80;92.81;96455.19;2105918;28;20044;-58
2023/06/25 02:27:20;;;;;;;16.63;12.38;;;;;;;11.78;93.23;96459.59;2105445;28;20059;-58
2023/06/25 02:28:21;;;;;;;17.20;13.18;;;;;;;11.76;92.94;96461.41;2106435;28;20056;-58
2023/06/25 02:29:22;;;;;;;16.25;12.70;;;;;;;11.75;93.76;96457.13;2104953;28;20056;-58
2023/06/25 02:30:23;;;;;;;18.10;12.90;;;;;;;11.74;93.16;96458.06;2097274;28;20142;-58
2023/06/25 02:31:24;;;;;;;18.05;13.88;;;;;;;11.72;93.40;96457.28;2096822;28;20063;-58
2023/06/25 02:32:25;;;;;;;16.60;13.52;;;;;;;11.70;94.05;96457.34;2104721;28;20066;-58
2023/06/25 02:33:26;;;;;;;15.82;12.68;;;;;;;11.68;93.23;96462.63;2106446;28;20051;-58
2023/06/25 02:34:28;;;;;;;17.88;13.50;;;;;;;11.68;93.68;96452.22;2105970;28;20052;-58
2023/06/25 02:35:29;;;;;;;21.38;14.50;;;;;;;11.67;94.21;96453.09;2106018;28;20056;-58
2023/06/25 02:36:30;;;;;;;17.30;13.70;;;;;;;11.66;93.86;96453.19;2106266;28;20040;-58
2023/06/25 02:37:31;;;;;;;16.63;13.45;;;;;;;11.62;94.12;96457.66;2106351;28;20048;-58
2023/06/25 02:38:32;;;;;;;16.10;12.57;;;;;;;11.61;93.73;96461.19;2106525;28;20048;-58
2023/06/25 02:39:33;;;;;;;18.23;13.18;;;;;;;11.61;94.20;96460.34;2105227;28;20048;-57
2023/06/25 02:40:35;;;;;;;17.80;13.18;;;;;;;11.59;93.94;96459.56;2096482;28;20059;-58
2023/06/25 02:41:36;;;;;;;19.50;12.50;;;;;;;11.58;93.87;96457.88;2097499;28;20477;-58
2023/06/25 02:42:37;;;;;;;16.92;12.77;;;;;;;11.57;93.82;96458.78;2096652;28;20376;-58
2023/06/25 02:43:39;;;;;;;19.23;13.02;;;;;;;11.55;94.32;96456.28;2105562;28;20059;-57
2023/06/25 02:44:40;;;;;;;15.27;12.20;;;;;;;11.53;94.23;96458.09;2105733;28;20063;-58
2023/06/25 02:45:41;;;;;;;14.43;11.07;;;;;;;11.52;94.58;96466.81;2106304;28;20074;-58
2023/06/25 02:46:42;;;;;;;19.50;13.45;;;;;;;11.50;93.83;96460.81;2105918;28;20055;-58
2023/06/25 02:47:43;;;;;;;18.02;13.13;;;;;;;11.48;94.25;96462.63;2104708;28;20055;-58
2023/06/25 02:48:46;;;;;;;15.82;12.35;;;;;;;11.48;93.72;96458.28;2097105;28;20056;-57
2023/06/25 02:49:49;;;;;;;17.88;12.88;;;;;;;11.48;94.52;96466.06;2097431;28;20049;-58
2023/06/25 02:50:51;;;;;;;15.85;12.50;;;;;;;11.49;94.16;96464.31;2096607;28;20075;-58
2023/06/25 02:51:52;;;;;;;15.88;12.68;;;;;;;11.49;94.73;96461.72;2097286;28;20194;-58
2023/06/25 02:52:53;;;;;;;19.55;13.55;;;;;;;11.48;94.85;96457.44;2104785;28;20507;-58
2023/06/25 02:53:54;;;;;;;17.10;13.63;;;;;;;11.41;94.27;96451.66;2096835;28;20388;-57
2023/06/25 02:54:55;;;;;;;19.42;12.95;;;;;;;11.42;94.53;96457.72;2105559;28;20040;-58
2023/06/25 02:55:56;;;;;;;17.55;12.48;;;;;;;11.44;94.17;96463.66;2106187;28;20059;-58
2023/06/25 02:56:58;;;;;;;19.55;13.35;;;;;;;11.43;93.99;96464.59;2106795;28;20394;-57
2023/06/25 02:57:59;;;;;;;17.33;12.40;;;;;;;11.40;93.82;96462.97;2106715;28;20051;-58
2023/06/25 02:59:00;;;;;;;16.52;12.65;;;;;;;11.39;94.77;96460.44;2098747;28;20044;-58
2023/06/25 03:00:04;;;;;;;18.08;12.18;;;;;;;11.32;94.56;96448.59;2098150;28;20060;-58
2023/06/25 03:01:06;;;;;;;17.30;12.90;;;;;;;11.38;94.78;96461.34;2106807;28;20127;-58
2023/06/25 03:02:07;;;;;;;17.55;13.43;;;;;;;11.36;94.80;96464.03;2098342;28;20056;-57
2023/06/25 03:03:08;;;;;;;16.73;13.23;;;;;;;11.33;94.94;96453.72;2098439;28;20076;-57
2023/06/25 03:04:09;;;;;;;17.60;13.77;;;;;;;11.37;94.75;96454.47;2097894;28;20051;-58
2023/06/25 03:05:11;;;;;;;16.15;13.18;;;;;;;11.39;94.38;96460.44;2098167;28;20045;-57
2023/06/25 03:06:13;;;;;;;15.75;12.60;;;;;;;11.37;94.80;96457.91;2097400;28;20057;-58
2023/06/25 03:07:14;;;;;;;17.85;12.95;;;;;;;11.37;94.78;96460.50;2098912;28;20044;-58
2023/06/25 03:08:15;;;;;;;17.23;13.35;;;;;;;11.37;94.21;96463.09;2098873;28;20431;-57
2023/06/25 03:09:16;;;;;;;14.75;12.60;;;;;;;11.36;94.00;96458.81;2090105;28;20471;-58
2023/06/25 03:10:17;;;;;;;16.75;13.10;;;;;;;11.29;94.13;96440.94;2081266;28;20064;-57
2023/06/25 03:11:18;;;;;;;17.65;12.75;;;;;;;11.36;93.81;96460.56;2090503;28;20520;-58
2023/06/25 03:12:19;;;;;;;16.13;12.48;;;;;;;11.27;93.54;96439.25;2098439;28;20056;-58
2023/06/25 03:13:21;;;;;;;16.92;13.00;;;;;;;11.33;93.63;96447.69;2090561;28;20055;-57
2023/06/25 03:14:22;;;;;;;18.85;12.80;;;;;;;11.36;93.86;96452.75;2098173;28;20514;-58
2023/06/25 03:15:23;;;;;;;17.02;13.07;;;;;;;11.38;93.55;96450.94;2106418;28;20052;-57
2023/06/25 03:16:24;;;;;;;16.15;12.90;;;;;;;11.36;93.71;96448.41;2099422;28;20048;-58
2023/06/25 03:17:25;;;;;;;15.50;12.80;;;;;;;11.36;93.30;96450.16;2098390;28;20060;-57
2023/06/25 03:18:26;;;;;;;16.77;12.77;;;;;;;11.36;93.45;96451.03;2090519;28;20433;-58
2023/06/25 03:19:28;;;;;;;17.27;13.25;;;;;;;11.36;93.57;96452.75;2090315;28;20497;-58
2023/06/25 03:20:29;;;;;;;16.75;12.80;;;;;;;11.36;93.76;96452.75;2082296;28;20049;-58
2023/06/25 03:21:31;;;;;;;17.60;12.60;;;;;;;11.35;93.80;96449.31;2090321;28;20057;-58
2023/06/25 03:22:33;;;;;;;18.65;13.30;;;;;;;11.34;93.50;96452.00;2098022;28;20056;-58
2023/06/25 03:23:34;;;;;;;19.20;14.52;;;;;;;11.34;93.36;96454.59;2098213;28;20131;-57
2023/06/25 03:24:37;;;;;;;18.52;13.85;;;;;;;11.34;94.33;96454.59;2090476;28;20056;-58
2023/06/25 03:25:38;;;;;;;17.45;14.10;;;;;;;11.35;94.54;96456.28;2090248;28;20534;-58
2023/06/25 03:26:58;;;;;;;15.75;12.35;;;;;;;11.35;93.67;96454.50;2092920;28;20052;-58
2023/06/25 03:27:59;;;;;;;13.63;12.10;;;;;;;11.35;93.96;96449.31;2098598;28;20047;-58
2023/06/25 03:29:01;;;;;;;16.63;13.00;;;;;;;11.36;94.54;96447.56;2097759;28;20053;-58
2023/06/25 03:30:03;;;;;;;16.85;12.82;;;;;;;11.36;94.21;96452.75;2098542;28;20060;-57
2023/06/25 03:31:05;;;;;;;15.68;12.52;;;;;;;11.37;94.63;96442.28;2098727;28;20045;-58
2023/06/25 03:32:15;;;;;;;16.48;12.80;;;;;;;11.39;94.95;96453.47;2091509;28;20044;-58
2023/06/25 03:33:17;;;;;;;15.40;13.13;;;;;;;11.30;94.59;96435.66;2090166;28;20072;-58
2023/06/25 03:34:18;;;;;;;17.70;14.20;;;;;;;11.39;94.49;96448.28;2098001;28;20495;-58
2023/06/25 03:35:19;;;;;;;18.55;13.60;;;;;;;11.40;94.02;96449.13;2098318;28;20185;-58
2023/06/25 03:36:21;;;;;;;16.20;12.68;;;;;;;11.41;94.93;96443.00;2089594;28;20055;-58
2023/06/25 03:37:23;;;;;;;16.60;13.23;;;;;;;11.40;94.12;96446.53;2098448;28;20040;-58
2023/06/25 03:38:24;;;;;;;16.45;13.20;;;;;;;11.40;94.96;96442.16;2081806;28;20187;-58
2023/06/25 03:39:27;;;;;;;16.98;14.23;;;;;;;11.40;94.55;96447.34;2082523;28;20052;-58
2023/06/25 03:40:28;;;;;;;15.95;13.38;;;;;;;11.41;94.78;96445.59;2090108;28;20048;-58
2023/06/25 03:41:29;;;;;;;18.17;13.30;;;;;;;11.43;94.74;96443.78;2089801;28;20072;-58
2023/06/25 03:42:32;;;;;;;17.02;13.32;;;;;;;11.46;95.47;96449.69;2090197;28;20049;-57
2023/06/25 03:43:33;;;;;;;16.63;13.93;;;;;;;11.47;95.08;96445.34;2090228;28;20048;-58
2023/06/25 03:44:34;;;;;;;16.83;13.70;;;;;;;11.49;94.76;96443.50;2098401;28;20055;-58
2023/06/25 03:45:35;;;;;;;16.23;13.48;;;;;;;11.42;94.77;96429.94;2090107;28;20428;-58
2023/06/25 03:46:37;;;;;;;14.65;12.38;;;;;;;11.50;95.65;96441.78;2098385;28;20048;-57
2023/06/25 03:47:39;;;;;;;16.85;12.75;;;;;;;11.55;95.84;96443.25;2098034;28;20055;-58
2023/06/25 03:48:41;;;;;;;17.27;13.80;;;;;;;11.57;95.81;96446.63;2097573;28;20484;-58
2023/06/25 03:49:42;;;;;;;16.25;12.43;;;;;;;11.60;95.45;96443.03;2089780;28;20053;-58
2023/06/25 03:50:44;;;;;;;16.13;12.52;;;;;;;11.61;95.56;96434.34;2090543;28;20064;-58
2023/06/25 03:51:45;;;;;;;14.98;12.07;;;;;;;11.63;95.46;96441.16;2098374;28;20511;-58
2023/06/25 03:52:46;;;;;;;15.45;12.52;;;;;;;11.64;95.79;96439.41;2089360;28;20057;-58
2023/06/25 03:53:47;;;;;;;17.08;12.75;;;;;;;11.64;95.38;96439.41;2090374;28;20327;-58
2023/06/25 03:54:49;;;;;;;18.92;13.18;;;;;;;11.69;96.10;96443.50;2098203;28;20059;-58
2023/06/25 03:55:50;;;;;;;16.60;13.13;;;;;;;11.73;95.37;96443.34;2106928;28;20040;-58
2023/06/25 03:56:51;;;;;;;16.02;13.27;;;;;;;11.74;95.94;96442.44;2098234;28;20091;-58
2023/06/25 03:57:55;;;;;;;16.42;12.95;;;;;;;11.72;95.34;96439.91;2097683;28;20063;-58
2023/06/25 03:58:56;;;;;;;18.33;15.02;;;;;;;11.78;96.20;96444.81;2098489;28;20051;-58
2023/06/25 03:59:57;;;;;;;20.58;15.23;;;;;;;11.82;96.22;96450.75;2098287;28;20417;-58
2023/06/25 04:00:58;;;;;;;15.57;13.38;;;;;;;11.84;95.79;96446.31;2098256;28;20040;-58
2023/06/25 04:01:59;;;;;;;18.80;14.05;;;;;;;11.89;95.56;96446.97;2090300;28;20041;-57
2023/06/25 04:03:00;;;;;;;18.98;15.15;;;;;;;11.94;95.86;96445.00;2098359;28;20392;-57
2023/06/25 04:04:01;;;;;;;17.02;14.75;;;;;;;11.96;95.94;96438.00;2098470;28;20047;-58
2023/06/25 04:05:05;;;;;;;17.95;14.05;;;;;;;11.99;96.16;96442.22;2090481;28;20048;-58
2023/06/25 04:06:06;;;;;;;16.55;13.90;;;;;;;12.01;95.63;96440.38;2089910;28;20064;-58
2023/06/25 04:07:08;;;;;;;17.23;13.32;;;;;;;12.05;95.60;96441.91;2090017;28;20053;-58
2023/06/25 04:08:09;;;;;;;17.60;14.18;;;;;;;12.08;95.48;96444.38;2096883;28;20056;-58
2023/06/25 04:09:10;;;;;;;15.63;12.88;;;;;;;12.11;95.93;96441.66;2089988;28;20052;-58
2023/06/25 04:10:12;;;;;;;14.70;12.10;;;;;;;12.14;95.37;96444.94;2089821;28;20056;-58
2023/06/25 04:11:13;;;;;;;14.80;12.25;;;;;;;12.17;95.17;96435.31;2097375;28;20064;-58
2023/06/25 04:12:15;;;;;;;15.98;12.27;;;;;;;12.23;96.00;96441.06;2098240;28;20048;-58
2023/06/25 04:13:16;;;;;;;14.18;12.20;;;;;;;12.27;95.12;96442.63;2098300;28;20063;-58
2023/06/25 04:14:18;;;;;;;14.52;12.43;;;;;;;12.31;95.54;96443.31;2097842;28;20059;-58
2023/06/25 04:15:19;;;;;;;14.07;11.68;;;;;;;12.34;95.40;96444.00;2090274;28;20084;-58
2023/06/25 04:16:20;;;;;;;16.20;12.13;;;;;;;12.38;95.13;96444.72;2098143;28;20059;-58
2023/06/25 04:17:22;;;;;;;14.95;11.85;;;;;;;12.41;94.55;96444.59;2089625;28;20087;-58
2023/06/25 04:18:23;;;;;;;14.57;12.13;;;;;;;12.42;94.52;96435.00;2098425;28;20492;-58
2023/06/25 04:19:24;;;;;;;14.80;11.70;;;;;;;12.48;94.85;96440.78;2098328;28;20060;-58
2023/06/25 04:20:27;;;;;;;16.70;11.93;;;;;;;12.51;94.44;96434.53;2098027;28;20055;-58
2023/06/25 04:21:29;;;;;;;14.07;11.60;;;;;;;12.54;94.07;96443.09;2089511;28;20053;-58
2023/06/25 04:22:30;;;;;;;14.63;12.10;;;;;;;12.56;93.95;96438.66;2097609;28;20052;-58
2023/06/25 04:23:31;;;;;;;15.63;12.90;;;;;;;12.62;93.83;96444.50;2097511;28;20060;-58
2023/06/25 04:24:32;;;;;;;14.02;11.90;;;;;;;12.66;93.13;96440.78;2089230;28;20064;-58
2023/06/25 04:25:33;;;;;;;16.27;11.43;;;;;;;12.70;93.18;96439.75;2098073;28;20059;-58
2023/06/25 04:26:34;;;;;;;15.23;12.73;;;;;;;12.75;92.71;96435.13;2098877;28;20448;-58
2023/06/25 04:27:37;;;;;;;15.35;11.77;;;;;;;12.78;92.61;96440.22;2098214;28;20044;-58
2023/06/25 04:28:39;;;;;;;14.90;11.20;;;;;;;12.85;92.57;96443.34;2089279;28;20053;-58
2023/06/25 04:29:41;;;;;;;15.52;11.48;;;;;;;12.83;91.81;96432.16;2089875;28;20060;-58
2023/06/25 04:30:42;;;;;;;14.15;11.40;;;;;;;12.95;91.46;96439.38;2089504;28;20057;-58
2023/06/25 04:31:44;;;;;;;13.52;11.48;;;;;;;12.99;91.35;96433.94;2089791;28;20048;-58
2023/06/25 04:32:49;;;;;;;14.32;11.18;;;;;;;13.01;90.81;96426.88;2098286;28;20047;-58
2023/06/25 04:33:51;;;;;;;14.10;11.25;;;;;;;13.09;90.29;96425.66;2098144;28;20048;-58
2023/06/25 04:34:52;;;;;;;16.73;11.65;;;;;;;13.13;89.49;96429.81;2089871;28;20055;-58
2023/06/25 04:35:53;;;;;;;12.55;10.52;;;;;;;13.19;89.47;96432.09;2089993;28;20048;-58
2023/06/25 04:36:54;;;;;;;14.35;11.18;;;;;;;13.25;88.35;96436.97;2089899;28;20049;-58
2023/06/25 04:37:56;;;;;;;17.05;11.77;;;;;;;13.30;88.16;96432.41;2089150;28;20049;-57
2023/06/25 04:38:57;;;;;;;13.05;10.88;;;;;;;13.34;87.66;96430.47;2089664;28;20044;-58
2023/06/25 04:40:03;;;;;;;13.18;11.15;;;;;;;13.39;86.83;96438.91;2089510;28;20432;-58
2023/06/25 04:41:05;;;;;;;12.75;10.27;;;;;;;13.36;85.90;96426.88;2090275;28;20037;-58
2023/06/25 04:42:06;;;;;;;14.38;11.73;;;;;;;13.46;85.51;96433.31;2089669;28;20048;-58
2023/06/25 04:43:08;;;;;;;15.63;11.07;;;;;;;13.54;84.37;96438.13;2089081;28;20049;-58
2023/06/25 04:44:09;;;;;;;14.43;10.90;;;;;;;13.51;83.37;96429.63;2089238;28;20094;-58
2023/06/25 04:45:10;;;;;;;13.18;11.15;;;;;;;13.66;83.26;96441.88;2089110;28;20516;-58